createdAt,value
2022-09-13T00:00:48.062Z,11.00
2022-09-13T00:01:48.103Z,12.00
2022-09-13T00:02:48.022Z,13.00
2022-09-13T00:03:49.063Z,9.30
2022-09-13T00:04:48.034Z,11.70
2022-09-13T00:05:48.068Z,11.50
2022-09-13T00:06:47.960Z,10.10
2022-09-13T00:07:47.973Z,14.50
2022-09-13T00:08:48.103Z,11.70
2022-09-13T00:09:47.912Z,9.90
2022-09-13T00:10:47.995Z,10.60
2022-09-13T00:11:47.921Z,12.50
2022-09-13T00:12:47.905Z,10.90
2022-09-13T00:13:47.924Z,11.10
2022-09-13T00:14:47.872Z,9.20
2022-09-13T00:15:47.844Z,12.00
2022-09-13T00:16:47.876Z,11.00
2022-09-13T00:17:47.834Z,10.70
2022-09-13T00:18:47.956Z,11.20
2022-09-13T00:19:47.791Z,12.50
2022-09-13T00:20:47.772Z,11.80
2022-09-13T00:21:47.809Z,13.30
2022-09-13T00:22:47.764Z,11.20
2022-09-13T00:23:47.775Z,12.30
2022-09-13T00:24:47.725Z,10.20
2022-09-13T00:25:47.714Z,10.80
2022-09-13T00:26:47.706Z,9.10
2022-09-13T00:27:47.695Z,9.50
2022-09-13T00:28:47.728Z,10.90
2022-09-13T00:29:47.667Z,11.60
2022-09-13T00:30:47.660Z,11.30
2022-09-13T00:31:47.817Z,11.00
2022-09-13T00:32:47.625Z,12.10
2022-09-13T00:33:47.646Z,11.30
2022-09-13T00:34:47.670Z,13.80
2022-09-13T00:35:47.610Z,13.70
2022-09-13T00:36:47.567Z,11.70
2022-09-13T00:37:48.607Z,11.20
2022-09-13T00:38:47.551Z,10.20
2022-09-13T00:39:49.796Z,11.50
2022-09-13T00:40:47.532Z,12.00
2022-09-13T00:41:47.589Z,13.20
2022-09-13T00:42:47.548Z,12.50
2022-09-13T00:43:47.576Z,11.10
2022-09-13T00:44:47.520Z,10.70
2022-09-13T00:45:47.571Z,11.00
2022-09-13T00:46:47.526Z,12.10
2022-09-13T00:47:47.482Z,12.40
2022-09-13T00:48:47.409Z,14.20
2022-09-13T00:49:47.451Z,10.70
2022-09-13T00:50:47.460Z,11.50
2022-09-13T00:51:47.469Z,10.60
2022-09-13T00:52:47.402Z,11.20
2022-09-13T00:53:47.369Z,12.00
2022-09-13T00:55:57.566Z,10.50
2022-09-13T00:56:57.615Z,11.40
2022-09-13T00:57:57.547Z,9.60
2022-09-13T00:58:57.516Z,10.90
2022-09-13T00:59:57.538Z,9.60
2022-09-13T01:00:57.515Z,9.70
2022-09-13T01:01:57.617Z,11.60
2022-09-13T01:02:57.491Z,9.30
2022-09-13T01:03:57.568Z,10.60
2022-09-13T01:04:57.479Z,11.00
2022-09-13T01:05:57.429Z,9.30
2022-09-13T01:06:57.502Z,8.90
2022-09-13T01:07:57.418Z,9.00
2022-09-13T01:08:57.515Z,10.60
2022-09-13T01:09:57.370Z,9.40
2022-09-13T01:10:57.422Z,11.60
2022-09-13T01:11:57.408Z,8.20
2022-09-13T01:12:57.360Z,9.40
2022-09-13T01:13:57.431Z,14.00
2022-09-13T01:14:57.311Z,11.50
2022-09-13T01:15:57.347Z,10.60
2022-09-13T01:16:57.270Z,12.10
2022-09-13T01:17:59.329Z,10.70
2022-09-13T01:18:57.252Z,11.20
2022-09-13T01:19:57.242Z,9.80
2022-09-13T01:20:57.281Z,12.40
2022-09-13T01:21:57.222Z,12.80
2022-09-13T01:22:57.332Z,10.00
2022-09-13T01:23:57.212Z,10.70
2022-09-13T01:24:57.193Z,9.30
2022-09-13T01:25:57.155Z,10.20
2022-09-13T01:26:57.231Z,10.20
2022-09-13T01:27:57.190Z,10.80
2022-09-13T01:28:57.233Z,9.80
2022-09-13T01:29:57.125Z,12.70
2022-09-13T01:30:57.132Z,9.90
2022-09-13T01:31:57.216Z,9.90
2022-09-13T01:32:57.184Z,12.60
2022-09-13T01:33:57.175Z,9.70
2022-09-13T01:34:58.096Z,9.00
2022-09-13T01:35:57.027Z,9.70
2022-09-13T01:36:57.075Z,10.40
2022-09-13T01:37:57.135Z,10.00
2022-09-13T01:38:57.096Z,10.80
2022-09-13T01:39:57.150Z,11.50
2022-09-13T01:40:56.966Z,12.90
2022-09-13T01:41:57.025Z,12.50
2022-09-13T01:42:57.065Z,11.30
2022-09-13T01:43:57.027Z,11.70
2022-09-13T01:44:56.925Z,12.30
2022-09-13T01:45:57.021Z,11.50
2022-09-13T01:47:19.925Z,12.00
2022-09-13T01:47:56.894Z,14.40
2022-09-13T01:48:56.953Z,12.40
2022-09-13T01:49:56.858Z,14.20
2022-09-13T01:50:56.875Z,14.20
2022-09-13T01:51:56.866Z,12.10
2022-09-13T01:52:56.922Z,12.00
2022-09-13T01:53:56.900Z,12.00
2022-09-13T01:54:56.807Z,10.90
2022-09-13T01:55:56.819Z,11.40
2022-09-13T01:56:56.820Z,9.50
2022-09-13T01:57:56.848Z,10.40
2022-09-13T01:58:56.823Z,9.10
2022-09-13T01:59:56.752Z,11.10
2022-09-13T02:00:56.787Z,10.70
2022-09-13T02:01:56.727Z,11.40
2022-09-13T02:02:56.789Z,14.30
2022-09-13T02:03:56.669Z,10.60
2022-09-13T02:04:56.764Z,9.80
2022-09-13T02:05:56.659Z,8.60
2022-09-13T02:06:56.626Z,11.00
2022-09-13T02:07:56.709Z,12.90
2022-09-13T02:08:56.618Z,9.90
2022-09-13T02:09:57.619Z,8.80
2022-09-13T02:10:56.595Z,10.10
2022-09-13T02:11:56.624Z,11.70
2022-09-13T02:12:56.552Z,10.40
2022-09-13T02:13:56.611Z,11.40
2022-09-13T02:14:56.530Z,11.60
2022-09-13T02:15:56.524Z,12.10
2022-09-13T02:16:56.531Z,13.90
2022-09-13T02:17:56.500Z,11.10
2022-09-13T02:18:56.541Z,10.60
2022-09-13T02:19:56.452Z,12.90
2022-09-13T02:20:56.445Z,10.80
2022-09-13T02:21:56.420Z,9.00
2022-09-13T02:22:56.515Z,9.40
2022-09-13T02:23:56.396Z,9.60
2022-09-13T02:24:56.393Z,11.90
2022-09-13T02:25:56.392Z,10.10
2022-09-13T02:26:56.408Z,10.90
2022-09-13T02:27:56.363Z,10.00
2022-09-13T02:28:56.423Z,8.80
2022-09-13T02:29:56.418Z,10.10
2022-09-13T02:30:56.323Z,12.00
2022-09-13T02:31:56.402Z,11.10
2022-09-13T02:32:56.384Z,12.60
2022-09-13T02:33:56.336Z,10.30
2022-09-13T02:34:56.364Z,10.70
2022-09-13T02:35:56.265Z,12.00
2022-09-13T02:36:56.229Z,7.40
2022-09-13T02:37:56.323Z,8.20
2022-09-13T02:38:56.205Z,9.50
2022-09-13T02:39:56.341Z,8.50
2022-09-13T02:40:56.196Z,10.60
2022-09-13T02:41:56.157Z,10.20
2022-09-13T02:42:56.243Z,11.20
2022-09-13T02:43:56.155Z,12.10
2022-09-13T02:44:56.225Z,10.70
2022-09-13T02:45:56.195Z,10.70
2022-09-13T02:46:56.113Z,9.50
2022-09-13T02:47:56.156Z,8.00
2022-09-13T02:48:58.137Z,10.90
2022-09-13T02:49:56.166Z,8.60
2022-09-13T02:50:56.167Z,10.80
2022-09-13T02:51:56.056Z,8.80
2022-09-13T02:52:56.027Z,11.70
2022-09-13T02:53:57.113Z,7.90
2022-09-13T02:54:55.999Z,8.80
2022-09-13T02:55:56.082Z,9.00
2022-09-13T02:56:56.008Z,8.90
2022-09-13T02:57:55.958Z,8.80
2022-09-13T02:58:56.008Z,9.40
2022-09-13T02:59:55.950Z,11.40
2022-09-13T03:00:56.091Z,10.50
2022-09-13T03:01:55.943Z,10.10
2022-09-13T03:02:55.959Z,11.50
2022-09-13T03:03:55.888Z,11.70
2022-09-13T03:04:55.884Z,10.70
2022-09-13T03:05:56.882Z,10.30
2022-09-13T03:06:55.847Z,9.00
2022-09-13T03:07:55.912Z,8.20
2022-09-13T03:08:55.822Z,9.60
2022-09-13T03:09:55.809Z,9.30
2022-09-13T03:10:55.889Z,13.10
2022-09-13T03:11:55.771Z,10.50
2022-09-13T03:12:55.834Z,8.60
2022-09-13T03:13:55.789Z,10.80
2022-09-13T03:14:55.760Z,10.20
2022-09-13T03:15:55.818Z,10.40
2022-09-13T03:16:57.802Z,11.30
2022-09-13T03:17:55.751Z,10.40
2022-09-13T03:18:55.733Z,11.00
2022-09-13T03:19:55.751Z,9.50
2022-09-13T03:20:55.779Z,10.40
2022-09-13T03:21:55.684Z,14.00
2022-09-13T03:22:55.662Z,11.10
2022-09-13T03:23:55.685Z,14.90
2022-09-13T03:24:55.635Z,14.40
2022-09-13T03:25:55.693Z,9.40
2022-09-13T03:26:55.704Z,11.80
2022-09-13T03:27:55.653Z,12.20
2022-09-13T03:28:55.614Z,11.70
2022-09-13T03:29:55.546Z,10.60
2022-09-13T03:30:55.646Z,9.50
2022-09-13T03:31:55.673Z,9.80
2022-09-13T03:32:55.585Z,10.10
2022-09-13T03:33:55.628Z,7.80
2022-09-13T03:34:55.484Z,8.30
2022-09-13T03:35:55.484Z,9.80
2022-09-13T03:36:55.566Z,10.60
2022-09-13T03:37:55.497Z,11.70
2022-09-13T03:38:55.436Z,11.30
2022-09-13T03:39:55.511Z,12.20
2022-09-13T03:40:55.495Z,11.00
2022-09-13T03:41:55.488Z,12.40
2022-09-13T03:42:55.429Z,12.60
2022-09-13T03:43:56.425Z,9.50
2022-09-13T03:44:55.407Z,9.80
2022-09-13T03:45:55.455Z,11.40
2022-09-13T03:46:55.427Z,10.50
2022-09-13T03:47:55.355Z,11.00
2022-09-13T03:48:55.377Z,11.40
2022-09-13T03:49:55.295Z,11.00
2022-09-13T04:03:34.178Z,10.80
2022-09-13T04:04:34.170Z,11.80
2022-09-13T04:05:34.147Z,11.40
2022-09-13T04:06:34.146Z,13.00
2022-09-13T04:07:34.173Z,13.20
2022-09-13T04:08:34.115Z,11.30
2022-09-13T04:09:34.107Z,12.20
2022-09-13T04:10:34.099Z,11.70
2022-09-13T04:11:34.069Z,11.60
2022-09-13T04:12:34.088Z,10.90
2022-09-13T04:13:34.058Z,11.20
2022-09-13T04:14:34.039Z,11.00
2022-09-13T04:15:34.055Z,13.60
2022-09-13T04:16:34.114Z,10.80
2022-09-13T04:17:33.999Z,11.50
2022-09-13T04:18:33.979Z,10.80
2022-09-13T04:19:33.961Z,10.40
2022-09-13T04:20:33.948Z,12.70
2022-09-13T04:21:33.931Z,11.00
2022-09-13T04:22:33.947Z,12.80
2022-09-13T04:23:33.899Z,10.80
2022-09-13T04:24:33.909Z,11.60
2022-09-13T04:25:33.889Z,13.30
2022-09-13T04:26:33.860Z,11.60
2022-09-13T04:27:33.883Z,12.30
2022-09-13T04:28:33.919Z,12.90
2022-09-13T04:29:33.839Z,11.40
2022-09-13T04:30:33.849Z,13.40
2022-09-13T04:31:33.930Z,11.00
2022-09-13T04:32:33.814Z,10.20
2022-09-13T04:33:33.782Z,10.20
2022-09-13T04:34:33.761Z,11.40
2022-09-13T04:35:33.751Z,10.30
2022-09-13T04:36:33.733Z,10.10
2022-09-13T04:37:33.742Z,9.90
2022-09-13T04:38:33.751Z,10.50
2022-09-13T04:39:33.723Z,14.50
2022-09-13T04:40:33.692Z,11.80
2022-09-13T04:41:33.687Z,11.10
2022-09-13T04:42:33.693Z,11.00
2022-09-13T04:43:33.663Z,11.60
2022-09-13T04:44:33.646Z,11.30
2022-09-13T04:45:33.689Z,10.50
2022-09-13T04:46:33.633Z,8.80
2022-09-13T04:47:33.625Z,11.90
2022-09-13T04:48:33.603Z,11.00
2022-09-13T04:49:33.576Z,10.10
2022-09-13T04:50:33.559Z,10.70
2022-09-13T04:51:33.546Z,10.00
2022-09-13T04:52:33.546Z,9.10
2022-09-13T04:53:33.527Z,8.90
2022-09-13T04:54:33.504Z,8.70
2022-09-13T04:55:33.487Z,9.70
2022-09-13T04:56:33.485Z,9.00
2022-09-13T04:57:33.498Z,10.80
2022-09-13T04:58:33.455Z,12.10
2022-09-13T04:59:33.426Z,14.30
2022-09-13T05:00:33.430Z,11.80
2022-09-13T05:01:34.440Z,13.50
2022-09-13T05:02:33.463Z,11.70
2022-09-13T05:03:33.396Z,11.00
2022-09-13T05:04:33.375Z,12.60
2022-09-13T05:05:33.368Z,10.90
2022-09-13T05:06:33.326Z,10.70
2022-09-13T05:07:33.333Z,10.70
2022-09-13T05:08:33.316Z,12.50
2022-09-13T05:09:33.438Z,11.30
2022-09-13T05:10:33.287Z,10.30
2022-09-13T05:11:34.269Z,13.10
2022-09-13T05:12:33.367Z,12.10
2022-09-13T05:13:33.269Z,10.90
2022-09-13T05:14:33.247Z,10.70
2022-09-13T05:15:33.227Z,11.00
2022-09-13T05:16:33.207Z,10.10
2022-09-13T05:17:33.236Z,11.70
2022-09-13T05:18:33.195Z,11.10
2022-09-13T05:19:33.189Z,11.80
2022-09-13T05:20:33.188Z,10.50
2022-09-13T05:21:33.160Z,11.60
2022-09-13T05:22:33.140Z,11.00
2022-09-13T05:23:33.129Z,10.70
2022-09-13T05:24:33.109Z,10.50
2022-09-13T05:25:33.102Z,10.60
2022-09-13T05:26:33.060Z,9.70
2022-09-13T05:27:33.069Z,11.50
2022-09-13T05:28:33.069Z,8.60
2022-09-13T05:29:33.049Z,10.60
2022-09-13T05:30:33.019Z,10.10
2022-09-13T05:31:33.078Z,7.70
2022-09-13T05:32:33.005Z,7.70
2022-09-13T05:33:33.007Z,9.80
2022-09-13T05:34:33.001Z,9.70
2022-09-13T05:35:32.987Z,8.90
2022-09-13T05:36:32.940Z,8.50
2022-09-13T05:37:32.960Z,10.20
2022-09-13T05:38:32.933Z,8.90
2022-09-13T05:39:43.973Z,10.00
2022-09-13T05:40:33.920Z,11.50
2022-09-13T05:41:32.892Z,9.90
2022-09-13T05:42:33.863Z,11.30
2022-09-13T05:43:32.888Z,10.00
2022-09-13T05:44:32.861Z,9.60
2022-09-13T05:45:32.857Z,10.70
2022-09-13T05:46:33.001Z,15.00
2022-09-13T05:47:32.832Z,11.50
2022-09-13T05:48:32.805Z,12.80
2022-09-13T05:49:32.804Z,8.90
2022-09-13T05:50:57.226Z,13.10
2022-09-13T05:51:33.775Z,7.80
2022-09-13T05:52:32.779Z,9.60
2022-09-13T05:53:32.763Z,11.10
2022-09-13T05:54:32.724Z,11.00
2022-09-13T05:55:32.737Z,9.00
2022-09-13T05:56:32.685Z,10.50
2022-09-13T05:57:32.693Z,9.30
2022-09-13T05:58:32.694Z,7.50
2022-09-13T05:59:32.664Z,11.10
2022-09-13T06:00:32.625Z,9.40
2022-09-13T06:01:32.830Z,9.80
2022-09-13T06:02:32.722Z,9.40
2022-09-13T06:03:32.627Z,8.50
2022-09-13T06:04:32.595Z,9.50
2022-09-13T06:05:32.593Z,8.60
2022-09-13T06:06:32.557Z,8.90
2022-09-13T06:07:32.536Z,9.40
2022-09-13T06:08:32.557Z,9.90
2022-09-13T06:09:32.527Z,10.10
2022-09-13T06:10:32.528Z,10.80
2022-09-13T06:11:32.522Z,9.80
2022-09-13T06:12:32.496Z,8.00
2022-09-13T06:13:32.483Z,8.10
2022-09-13T06:14:32.460Z,11.10
2022-09-13T06:15:32.472Z,9.40
2022-09-13T06:16:32.488Z,8.00
2022-09-13T06:17:32.429Z,10.30
2022-09-13T06:18:32.397Z,9.10
2022-09-13T06:19:32.395Z,11.90
2022-09-13T06:20:32.358Z,9.60
2022-09-13T06:21:32.359Z,10.10
2022-09-13T06:22:32.393Z,9.50
2022-09-13T06:23:32.360Z,13.50
2022-09-13T06:24:32.350Z,10.20
2022-09-13T06:25:32.329Z,10.20
2022-09-13T06:26:32.320Z,10.30
2022-09-13T06:27:32.320Z,10.00
2022-09-13T06:28:36.666Z,11.80
2022-09-13T06:29:33.282Z,12.60
2022-09-13T06:30:32.263Z,10.60
2022-09-13T06:31:32.343Z,10.00
2022-09-13T06:32:32.232Z,10.40
2022-09-13T06:33:32.222Z,11.60
2022-09-13T06:34:32.191Z,9.30
2022-09-13T06:35:32.182Z,9.80
2022-09-13T06:36:32.152Z,10.20
2022-09-13T06:37:32.152Z,13.30
2022-09-13T06:38:32.153Z,10.00
2022-09-13T06:39:32.128Z,11.70
2022-09-13T06:40:32.167Z,10.40
2022-09-13T06:41:32.083Z,8.70
2022-09-13T06:42:32.094Z,11.10
2022-09-13T06:43:32.072Z,9.00
2022-09-13T06:44:32.086Z,8.60
2022-09-13T06:45:32.056Z,9.70
2022-09-13T06:46:32.138Z,11.80
2022-09-13T06:47:32.024Z,9.30
2022-09-13T06:48:33.049Z,9.00
2022-09-13T06:49:33.006Z,9.30
2022-09-13T06:50:31.993Z,8.70
2022-09-13T06:51:31.994Z,9.70
2022-09-13T06:52:31.966Z,8.10
2022-09-13T06:53:31.954Z,8.50
2022-09-13T06:54:31.955Z,11.50
2022-09-13T06:55:31.916Z,8.40
2022-09-13T06:56:31.926Z,9.00
2022-09-13T06:57:31.916Z,8.80
2022-09-13T06:58:31.865Z,8.60
2022-09-13T06:59:31.890Z,8.50
2022-09-13T07:00:31.927Z,13.10
2022-09-13T07:01:31.963Z,9.20
2022-09-13T07:02:31.846Z,9.90
2022-09-13T07:03:31.823Z,12.70
2022-09-13T07:04:31.797Z,11.60
2022-09-13T07:05:31.789Z,9.30
2022-09-13T07:06:31.789Z,9.10
2022-09-13T07:07:31.757Z,12.40
2022-09-13T07:08:31.731Z,11.00
2022-09-13T07:09:31.757Z,8.40
2022-09-13T07:10:31.710Z,12.80
2022-09-13T07:11:31.720Z,9.60
2022-09-13T07:12:31.673Z,7.90
2022-09-13T07:13:31.690Z,10.00
2022-09-13T07:14:31.670Z,8.90
2022-09-13T07:15:31.674Z,10.10
2022-09-13T07:16:31.655Z,8.90
2022-09-13T07:17:31.780Z,8.20
2022-09-13T07:18:31.604Z,9.60
2022-09-13T07:19:31.612Z,7.80
2022-09-13T07:20:31.590Z,9.50
2022-09-13T07:21:31.581Z,8.40
2022-09-13T07:22:31.560Z,8.20
2022-09-13T07:23:31.541Z,9.20
2022-09-13T07:24:31.531Z,7.90
2022-09-13T07:25:31.512Z,7.00
2022-09-13T07:26:31.520Z,7.10
2022-09-13T07:27:31.492Z,8.00
2022-09-13T07:28:35.250Z,7.80
2022-09-13T07:29:31.466Z,6.90
2022-09-13T07:30:31.433Z,10.20
2022-09-13T07:31:31.501Z,9.90
2022-09-13T07:32:31.416Z,8.50
2022-09-13T07:33:31.434Z,10.80
2022-09-13T07:34:31.392Z,8.00
2022-09-13T07:35:31.393Z,8.50
2022-09-13T07:36:31.381Z,7.20
2022-09-13T07:37:31.356Z,9.70
2022-09-13T07:38:31.326Z,8.80
2022-09-13T07:39:31.337Z,7.40
2022-09-13T07:40:31.304Z,6.50
2022-09-13T07:41:31.352Z,9.40
2022-09-13T07:42:31.276Z,7.00
2022-09-13T07:43:31.286Z,7.60
2022-09-13T07:44:31.268Z,6.10
2022-09-13T07:45:31.257Z,6.80
2022-09-13T07:46:31.307Z,5.90
2022-09-13T07:47:31.236Z,7.00
2022-09-13T07:48:33.506Z,7.80
2022-09-13T07:49:31.258Z,5.20
2022-09-13T07:50:31.209Z,5.80
2022-09-13T07:51:31.176Z,5.10
2022-09-13T07:52:31.179Z,5.40
2022-09-13T07:53:31.153Z,6.10
2022-09-13T07:54:31.152Z,6.30
2022-09-13T07:55:31.124Z,7.30
2022-09-13T07:56:31.101Z,5.60
2022-09-13T07:57:31.146Z,5.00
2022-09-13T07:58:31.098Z,5.40
2022-09-13T07:59:32.101Z,4.80
2022-09-13T08:00:32.055Z,7.10
2022-09-13T08:01:31.132Z,9.40
2022-09-13T08:02:31.185Z,5.40
2022-09-13T08:03:31.056Z,5.20
2022-09-13T08:04:36.126Z,11.80
2022-09-13T08:05:30.995Z,7.00
2022-09-13T08:06:30.984Z,6.50
2022-09-13T08:07:30.975Z,7.20
2022-09-13T08:08:30.945Z,4.50
2022-09-13T08:09:30.944Z,4.40
2022-09-13T08:10:30.926Z,4.20
2022-09-13T08:11:30.905Z,5.20
2022-09-13T08:12:30.906Z,4.10
2022-09-13T08:13:30.886Z,4.40
2022-09-13T08:14:30.906Z,4.40
2022-09-13T08:15:30.881Z,3.90
2022-09-13T08:16:30.869Z,5.80
2022-09-13T08:17:30.846Z,4.10
2022-09-13T08:18:30.840Z,4.40
2022-09-13T08:19:30.848Z,4.40
2022-09-13T08:20:30.809Z,5.30
2022-09-13T08:21:30.808Z,4.30
2022-09-13T08:22:30.768Z,5.20
2022-09-13T08:23:30.754Z,4.30
2022-09-13T08:24:30.758Z,4.30
2022-09-13T08:25:30.709Z,5.60
2022-09-13T08:26:30.702Z,4.20
2022-09-13T08:27:30.700Z,5.80
2022-09-13T08:28:30.711Z,3.70
2022-09-13T08:29:30.692Z,4.60
2022-09-13T08:30:30.661Z,6.20
2022-09-13T08:31:30.662Z,5.30
2022-09-13T08:32:30.630Z,6.10
2022-09-13T08:33:30.644Z,4.70
2022-09-13T08:34:30.633Z,4.20
2022-09-13T08:35:30.604Z,4.10
2022-09-13T08:36:31.587Z,4.30
2022-09-13T08:37:30.573Z,4.10
2022-09-13T08:38:30.571Z,5.00
2022-09-13T08:39:33.387Z,5.20
2022-09-13T08:40:30.532Z,7.10
2022-09-13T08:41:30.525Z,5.20
2022-09-13T08:42:30.522Z,10.50
2022-09-13T08:43:30.511Z,4.10
2022-09-13T08:44:30.493Z,4.40
2022-09-13T08:45:30.485Z,4.70
2022-09-13T08:46:31.491Z,4.10
2022-09-13T08:47:30.469Z,4.20
2022-09-13T08:48:30.437Z,4.40
2022-09-13T08:49:30.446Z,3.90
2022-09-13T08:50:30.399Z,3.50
2022-09-13T08:51:30.421Z,4.00
2022-09-13T08:52:30.383Z,6.20
2022-09-13T08:53:30.372Z,3.80
2022-09-13T08:54:30.366Z,3.60
2022-09-13T08:55:30.377Z,5.30
2022-09-13T08:56:30.317Z,4.90
2022-09-13T08:57:30.305Z,5.70
2022-09-13T08:58:30.300Z,4.80
2022-09-13T08:59:30.336Z,5.40
2022-09-13T09:00:30.291Z,5.00
2022-09-13T09:01:30.263Z,3.90
2022-09-13T09:02:30.293Z,3.60
2022-09-13T09:03:30.231Z,3.60
2022-09-13T09:04:30.287Z,4.20
2022-09-13T09:05:30.240Z,5.00
2022-09-13T09:06:30.174Z,4.20
2022-09-13T09:07:30.180Z,5.20
2022-09-13T09:08:30.189Z,4.10
2022-09-13T09:09:30.161Z,3.30
2022-09-13T09:10:30.141Z,3.80
2022-09-13T09:11:30.118Z,3.40
2022-09-13T09:12:30.132Z,6.00
2022-09-13T09:13:30.101Z,3.90
2022-09-13T09:14:30.099Z,3.40
2022-09-13T09:15:30.138Z,3.50
2022-09-13T09:16:30.061Z,3.70
2022-09-13T09:17:30.041Z,4.10
2022-09-13T09:18:30.043Z,5.50
2022-09-13T09:19:30.033Z,3.50
2022-09-13T09:20:31.013Z,3.20
2022-09-13T09:21:30.007Z,3.40
2022-09-13T09:22:29.994Z,4.60
2022-09-13T09:23:29.984Z,3.80
2022-09-13T09:24:29.954Z,3.50
2022-09-13T09:25:29.966Z,3.80
2022-09-13T09:26:29.924Z,4.40
2022-09-13T09:27:30.905Z,5.50
2022-09-13T09:28:29.927Z,4.20
2022-09-13T09:29:29.897Z,5.60
2022-09-13T09:30:29.914Z,3.30
2022-09-13T09:31:29.863Z,3.90
2022-09-13T09:32:29.856Z,4.10
2022-09-13T09:33:29.838Z,4.10
2022-09-13T09:34:29.826Z,3.50
2022-09-13T09:35:29.815Z,4.60
2022-09-13T09:36:29.817Z,4.00
2022-09-13T09:37:29.787Z,5.10
2022-09-13T09:38:29.775Z,3.00
2022-09-13T09:39:29.748Z,4.80
2022-09-13T09:40:31.712Z,5.80
2022-09-13T09:41:29.732Z,7.10
2022-09-13T09:42:29.717Z,6.70
2022-09-13T09:43:29.725Z,4.90
2022-09-13T09:44:29.690Z,7.00
2022-09-13T09:45:29.698Z,5.30
2022-09-13T09:46:29.679Z,7.60
2022-09-13T09:47:29.751Z,10.60
2022-09-13T10:03:39.521Z,4.70
2022-09-13T10:04:39.478Z,4.00
2022-09-13T10:05:39.490Z,3.50
2022-09-13T10:06:39.461Z,3.80
2022-09-13T10:07:39.451Z,3.50
2022-09-13T10:08:39.452Z,3.90
2022-09-13T10:09:39.421Z,3.20
2022-09-13T10:10:39.430Z,3.50
2022-09-13T10:11:39.407Z,3.70
2022-09-13T10:12:39.387Z,4.40
2022-09-13T10:13:39.382Z,4.90
2022-09-13T10:14:39.353Z,4.40
2022-09-13T10:15:39.348Z,4.20
2022-09-13T10:16:40.385Z,3.70
2022-09-13T10:17:39.332Z,3.50
2022-09-13T10:18:46.374Z,6.70
2022-09-13T10:19:40.302Z,6.30
2022-09-13T10:20:39.310Z,3.80
2022-09-13T10:21:40.282Z,4.90
2022-09-13T10:22:39.262Z,6.50
2022-09-13T10:23:39.266Z,3.30
2022-09-13T10:24:39.241Z,8.30
2022-09-13T10:25:40.962Z,3.50
2022-09-13T10:26:39.216Z,3.20
2022-09-13T10:27:39.197Z,3.70
2022-09-13T10:28:39.178Z,3.00
2022-09-13T10:29:39.170Z,4.10
2022-09-13T10:30:39.237Z,4.50
2022-09-13T10:31:39.151Z,4.50
2022-09-13T10:32:39.129Z,5.50
2022-09-13T10:33:39.127Z,5.40
2022-09-13T10:34:39.117Z,4.00
2022-09-13T10:35:40.098Z,2.60
2022-09-13T10:36:52.070Z,3.10
2022-09-13T10:37:40.078Z,2.90
2022-09-13T10:38:41.865Z,2.60
2022-09-13T10:39:40.140Z,2.90
2022-09-13T10:40:40.029Z,3.30
2022-09-13T10:41:39.023Z,3.10
2022-09-13T10:42:39.011Z,3.00
2022-09-13T10:43:38.992Z,4.80
2022-09-13T10:44:38.966Z,2.40
2022-09-13T10:45:39.041Z,3.10
2022-09-13T10:46:38.951Z,4.30
2022-09-13T10:47:38.953Z,3.40
2022-09-13T10:48:38.930Z,3.00
2022-09-13T10:49:38.930Z,4.10
2022-09-13T10:50:38.933Z,3.60
2022-09-13T10:51:38.882Z,4.00
2022-09-13T10:52:38.864Z,3.60
2022-09-13T10:53:38.891Z,4.90
2022-09-13T10:54:38.863Z,4.10
2022-09-13T10:55:38.930Z,3.10
2022-09-13T10:56:38.819Z,3.80
2022-09-13T10:57:38.815Z,2.90
2022-09-13T10:58:38.817Z,4.20
2022-09-13T10:59:38.806Z,2.80
2022-09-13T11:00:38.786Z,2.90
2022-09-13T11:01:40.561Z,2.70
2022-09-13T11:02:38.727Z,2.80
2022-09-13T11:03:38.727Z,6.90
2022-09-13T11:04:38.743Z,7.60
2022-09-13T11:05:38.727Z,5.60
2022-09-13T11:06:38.707Z,3.40
2022-09-13T11:07:38.688Z,3.90
2022-09-13T11:08:38.681Z,4.60
2022-09-13T11:09:40.679Z,3.20
2022-09-13T11:10:38.668Z,2.70
2022-09-13T11:11:38.635Z,3.70
2022-09-13T11:12:38.654Z,2.60
2022-09-13T11:13:41.786Z,4.40
2022-09-13T11:14:39.589Z,2.60
2022-09-13T11:15:38.607Z,2.60
2022-09-13T11:16:38.612Z,5.40
2022-09-13T11:17:38.568Z,2.60
2022-09-13T11:18:38.530Z,4.50
2022-09-13T11:19:38.776Z,4.80
2022-09-13T11:20:38.516Z,3.20
2022-09-13T11:21:38.496Z,3.00
2022-09-13T11:22:38.471Z,3.60
2022-09-13T11:23:38.544Z,4.40
2022-09-13T11:24:38.463Z,2.60
2022-09-13T11:25:38.464Z,2.70
2022-09-13T11:26:38.797Z,5.10
2022-09-13T11:27:38.416Z,3.30
2022-09-13T11:28:38.403Z,2.50
2022-09-13T11:29:38.394Z,3.90
2022-09-13T11:30:38.394Z,2.20
2022-09-13T11:31:38.443Z,3.90
2022-09-13T11:32:38.343Z,3.90
2022-09-13T11:33:38.410Z,2.80
2022-09-13T11:34:38.318Z,2.40
2022-09-13T11:35:38.325Z,3.30
2022-09-13T11:36:38.285Z,3.00
2022-09-13T11:37:38.286Z,2.60
2022-09-13T11:38:38.288Z,2.70
2022-09-13T11:39:39.260Z,2.40
2022-09-13T11:40:38.260Z,4.00
2022-09-13T11:41:38.239Z,2.40
2022-09-13T11:42:38.209Z,2.20
2022-09-13T11:43:38.315Z,3.10
2022-09-13T11:44:38.178Z,2.60
2022-09-13T11:45:38.221Z,2.40
2022-09-13T11:46:38.154Z,2.30
2022-09-13T11:47:38.148Z,3.00
2022-09-13T11:48:39.142Z,2.90
2022-09-13T11:49:38.119Z,3.80
2022-09-13T11:50:38.130Z,4.20
2022-09-13T11:51:38.093Z,2.60
2022-09-13T11:52:38.083Z,3.10
2022-09-13T11:53:39.062Z,2.60
2022-09-13T11:54:38.054Z,2.70
2022-09-13T11:55:38.052Z,5.00
2022-09-13T11:56:38.044Z,3.20
2022-09-13T11:57:38.004Z,3.30
2022-09-13T11:58:38.004Z,4.10
2022-09-13T11:59:37.983Z,4.60
2022-09-13T12:00:37.983Z,3.70
2022-09-13T12:01:37.945Z,3.40
2022-09-13T12:02:37.989Z,2.50
2022-09-13T12:03:38.966Z,3.80
2022-09-13T12:04:37.937Z,2.10
2022-09-13T12:05:37.914Z,3.90
2022-09-13T12:06:37.903Z,4.10
2022-09-13T12:07:37.866Z,3.30
2022-09-13T12:08:38.855Z,3.20
2022-09-13T12:09:37.839Z,2.30
2022-09-13T12:10:37.844Z,2.30
2022-09-13T12:11:37.826Z,2.30
2022-09-13T12:12:37.805Z,2.30
2022-09-13T12:13:38.811Z,2.10
2022-09-13T12:14:37.777Z,2.50
2022-09-13T12:15:37.779Z,4.30
2022-09-13T12:16:37.788Z,4.90
2022-09-13T12:17:37.738Z,5.70
2022-09-13T12:18:38.717Z,3.60
2022-09-13T12:19:37.756Z,2.00
2022-09-13T12:20:37.706Z,3.20
2022-09-13T12:21:37.704Z,2.50
2022-09-13T12:22:37.671Z,2.30
2022-09-13T12:23:38.754Z,2.70
2022-09-13T12:24:37.639Z,2.20
2022-09-13T12:25:37.640Z,2.40
2022-09-13T12:26:37.606Z,2.70
2022-09-13T12:27:39.931Z,5.80
2022-09-13T12:28:38.582Z,2.50
2022-09-13T12:29:37.570Z,3.90
2022-09-13T12:30:37.570Z,4.70
2022-09-13T12:31:37.605Z,2.70
2022-09-13T12:32:37.533Z,3.40
2022-09-13T12:33:37.541Z,2.70
2022-09-13T12:34:37.522Z,4.60
2022-09-13T12:35:37.540Z,4.10
2022-09-13T12:36:37.512Z,2.40
2022-09-13T12:37:37.473Z,4.70
2022-09-13T12:38:37.454Z,3.20
2022-09-13T12:39:38.456Z,4.80
2022-09-13T12:40:37.436Z,3.00
2022-09-13T12:41:37.444Z,4.30
2022-09-13T12:42:37.398Z,3.70
2022-09-13T12:43:37.404Z,3.10
2022-09-13T12:44:37.394Z,4.80
2022-09-13T12:45:37.468Z,4.70
2022-09-13T12:46:37.375Z,3.30
2022-09-13T12:47:37.355Z,3.30
2022-09-13T12:48:37.339Z,5.60
2022-09-13T12:49:37.317Z,2.40
2022-09-13T12:50:43.399Z,4.80
2022-09-13T12:51:38.326Z,3.40
2022-09-13T12:52:37.290Z,4.00
2022-09-13T12:53:37.269Z,2.70
2022-09-13T12:54:37.250Z,2.70
2022-09-13T12:55:50.754Z,3.60
2022-09-13T12:56:38.227Z,2.60
2022-09-13T12:57:37.220Z,3.70
2022-09-13T12:58:37.211Z,3.90
2022-09-13T12:59:37.209Z,5.60
2022-09-13T13:00:37.218Z,7.00
2022-09-13T13:01:37.322Z,4.60
2022-09-13T13:02:37.181Z,2.50
2022-09-13T13:03:37.139Z,2.30
2022-09-13T13:04:37.130Z,4.30
2022-09-13T13:05:37.141Z,4.50
2022-09-13T13:06:37.123Z,3.30
2022-09-13T13:07:37.111Z,3.10
2022-09-13T13:08:37.092Z,2.70
2022-09-13T13:09:37.071Z,3.80
2022-09-13T13:10:37.063Z,7.80
2022-09-13T13:11:37.065Z,3.10
2022-09-13T13:12:37.033Z,2.90
2022-09-13T13:13:37.043Z,4.70
2022-09-13T13:14:37.032Z,3.60
2022-09-13T13:15:37.054Z,3.00
2022-09-13T13:16:37.050Z,2.80
2022-09-13T13:17:36.977Z,3.30
2022-09-13T13:18:36.953Z,3.70
2022-09-13T13:19:36.946Z,4.30
2022-09-13T13:20:36.946Z,3.30
2022-09-13T13:21:36.928Z,2.90
2022-09-13T13:22:36.906Z,5.10
2022-09-13T13:23:36.907Z,3.20
2022-09-13T13:24:36.865Z,4.50
2022-09-13T13:25:36.884Z,4.40
2022-09-13T13:26:37.862Z,3.30
2022-09-13T13:27:36.840Z,4.10
2022-09-13T13:28:36.845Z,4.90
2022-09-13T13:29:36.828Z,5.20
2022-09-13T13:30:37.831Z,3.40
2022-09-13T13:31:37.827Z,3.20
2022-09-13T13:32:36.791Z,3.20
2022-09-13T13:33:36.777Z,4.80
2022-09-13T13:34:36.777Z,4.80
2022-09-13T13:35:36.799Z,5.40
2022-09-13T13:36:36.772Z,2.50
2022-09-13T13:37:36.802Z,3.00